Time;durP1;ratioP1;P1;durP2;ratioP2;P2;SDS_P1;SDS_P2;PMS_P1;PMS_P2;Temp;Humidity;BMP_temperature;BMP_pressure;BME280_temperature;BME280_humidity;BME280_pressure;Samples;Min_cycle;Max_cycle;Signal;HPM_P1;HPM_P2
2022/05/07 00:00:55;;;;;;;9.88;8.88;;;19.00;79.50;;;;;;5016300;28;20034;-60
2022/05/07 00:03:20;;;;;;;10.80;9.40;;;19.00;79.50;;;;;;5016812;28;20026;-62
2022/05/07 00:05:46;;;;;;;11.75;9.20;;;19.00;79.30;;;;;;5010446;28;20030;-60
2022/05/07 00:08:11;;;;;;;10.02;8.98;;;19.00;79.50;;;;;;5015823;28;20054;-64
2022/05/07 00:10:37;;;;;;;10.50;9.40;;;18.90;79.60;;;;;;5015803;28;20083;-64
2022/05/07 00:13:04;;;;;;;17.08;11.18;;;18.90;79.60;;;;;;5015993;28;20037;-61
2022/05/07 00:15:30;;;;;;;16.27;11.45;;;18.90;79.70;;;;;;5015041;28;20373;-64
2022/05/07 00:18:03;;;;;;;15.43;11.80;;;18.90;79.70;;;;;;5016167;28;20513;-60
2022/05/07 00:20:31;;;;;;;12.63;11.25;;;18.90;80.00;;;;;;5016339;28;20056;-65
2022/05/07 00:22:57;;;;;;;14.07;12.02;;;18.90;80.10;;;;;;5015990;28;20116;-63
2022/05/07 00:25:23;;;;;;;16.45;11.65;;;18.90;79.90;;;;;;5016031;28;20033;-60
2022/05/07 00:27:48;;;;;;;11.63;10.43;;;18.80;79.70;;;;;;5015498;28;20108;-63
2022/05/07 00:30:14;;;;;;;13.93;10.85;;;18.80;80.00;;;;;;5016004;28;20181;-64
2022/05/07 00:32:40;;;;;;;12.32;11.02;;;18.80;79.80;;;;;;5016058;28;20468;-60
2022/05/07 00:35:06;;;;;;;11.18;9.82;;;18.80;80.00;;;;;;5016147;28;20022;-65
2022/05/07 00:37:32;;;;;;;13.25;11.02;;;18.80;80.10;;;;;;5015544;28;20022;-60
2022/05/07 00:39:57;;;;;;;12.40;10.13;;;18.80;80.00;;;;;;5011640;28;20053;-60
2022/05/07 00:42:23;;;;;;;11.50;9.50;;;18.80;80.20;;;;;;5015556;28;20073;-62
2022/05/07 00:44:48;;;;;;;17.30;11.63;;;18.80;79.90;;;;;;5014939;28;20068;-61
2022/05/07 00:47:14;;;;;;;12.90;10.18;;;18.80;79.50;;;;;;5014141;28;20511;-61
2022/05/07 00:49:42;;;;;;;16.25;11.20;;;18.70;79.30;;;;;;5015640;28;20034;-65
2022/05/07 00:52:08;;;;;;;13.38;10.68;;;18.70;79.30;;;;;;5015373;28;20029;-61
2022/05/07 00:54:34;;;;;;;11.35;10.13;;;18.70;79.50;;;;;;5015576;28;20031;-61
2022/05/07 00:56:59;;;;;;;13.48;11.07;;;18.70;79.70;;;;;;5008331;28;20027;-63
2022/05/07 00:59:25;;;;;;;11.70;10.40;;;18.70;79.70;;;;;;5015516;28;20030;-64
2022/05/07 01:01:50;;;;;;;11.55;10.35;;;18.70;79.30;;;;;;5014162;28;20037;-61
2022/05/07 01:04:16;;;;;;;11.57;9.85;;;18.70;78.70;;;;;;5014368;28;20036;-65
2022/05/07 01:06:42;;;;;;;11.93;9.23;;;18.60;78.60;;;;;;5014856;28;20399;-63
2022/05/07 01:09:07;;;;;;;9.88;8.88;;;18.70;79.20;;;;;;5015259;28;20018;-64
2022/05/07 01:11:34;;;;;;;11.38;8.95;;;18.60;79.50;;;;;;5015447;28;20506;-63
2022/05/07 01:13:59;;;;;;;11.73;9.07;;;18.60;79.70;;;;;;5014910;28;20030;-64
2022/05/07 01:16:25;;;;;;;12.98;9.43;;;18.60;80.70;;;;;;5015141;28;20037;-65
2022/05/07 01:18:51;;;;;;;17.00;9.95;;;18.60;80.80;;;;;;5014964;28;20022;-65
2022/05/07 01:21:17;;;;;;;11.52;8.63;;;18.50;80.70;;;;;;5013401;28;20180;-65
2022/05/07 01:23:44;;;;;;;13.75;9.40;;;18.60;81.20;;;;;;5015207;28;20028;-64
2022/05/07 01:26:10;;;;;;;11.93;8.90;;;18.60;81.40;;;;;;5014944;28;20026;-64
2022/05/07 01:28:37;;;;;;;10.95;8.82;;;18.50;81.40;;;;;;5014499;28;20037;-63
2022/05/07 01:31:03;;;;;;;14.35;8.80;;;18.50;80.70;;;;;;5014862;28;20485;-65
2022/05/07 01:33:33;;;;;;;10.75;8.30;;;18.50;81.70;;;;;;5014830;28;20022;-66
2022/05/07 01:36:00;;;;;;;10.30;8.32;;;18.50;82.10;;;;;;5014558;28;20025;-65
2022/05/07 01:38:26;;;;;;;9.88;8.70;;;18.50;81.40;;;;;;5014856;28;20018;-60
2022/05/07 01:40:51;;;;;;;12.30;8.82;;;18.40;80.40;;;;;;5014663;28;20403;-65
2022/05/07 01:43:17;;;;;;;11.05;8.40;;;18.40;80.30;;;;;;5014138;28;20018;-64
2022/05/07 01:45:42;;;;;;;8.73;7.82;;;18.40;79.80;;;;;;5014795;28;20022;-63
2022/05/07 01:48:10;;;;;;;9.88;8.18;;;18.40;80.60;;;;;;5014428;28;20029;-61
2022/05/07 01:50:41;;;;;;;9.15;8.27;;;18.40;79.80;;;;;;5014207;28;20459;-60
2022/05/07 01:53:12;;;;;;;11.15;7.80;;;18.40;79.70;;;;;;5013603;28;20024;-60
2022/05/07 01:55:38;;;;;;;14.88;9.18;;;18.40;80.10;;;;;;5014720;28;20475;-60
2022/05/07 01:58:04;;;;;;;9.27;8.20;;;18.30;78.90;;;;;;5014226;28;20022;-63
2022/05/07 02:00:31;;;;;;;10.88;7.20;;;18.30;78.80;;;;;;5013114;28;20025;-60
2022/05/07 02:02:58;;;;;;;10.93;7.10;;;18.30;79.40;;;;;;5013174;28;20021;-61
2022/05/07 02:05:25;;;;;;;10.32;6.75;;;18.30;79.00;;;;;;5014121;28;20026;-61
2022/05/07 02:07:51;;;;;;;8.45;6.80;;;18.30;79.20;;;;;;5013682;28;20443;-60
2022/05/07 02:10:17;;;;;;;10.68;6.75;;;18.30;79.20;;;;;;5014284;28;20486;-64
2022/05/07 02:12:42;;;;;;;9.07;7.32;;;18.30;79.30;;;;;;5014277;28;20467;-65
2022/05/07 02:15:08;;;;;;;10.30;7.90;;;18.20;78.70;;;;;;5014126;28;20030;-61
2022/05/07 02:17:34;;;;;;;9.45;6.82;;;18.20;78.70;;;;;;5013871;28;20021;-64
2022/05/07 02:20:00;;;;;;;10.25;7.65;;;18.20;78.90;;;;;;5013794;28;20109;-61
2022/05/07 02:22:25;;;;;;;13.48;7.03;;;18.20;79.60;;;;;;5013994;28;20026;-65
2022/05/07 02:24:51;;;;;;;8.23;6.65;;;18.20;78.50;;;;;;5013663;28;20022;-60
2022/05/07 02:27:17;;;;;;;10.30;7.07;;;18.10;78.10;;;;;;5013812;28;20033;-59
2022/05/07 02:29:43;;;;;;;8.57;6.63;;;18.10;78.10;;;;;;5013799;28;20025;-59
2022/05/07 02:32:13;;;;;;;10.43;6.97;;;18.10;77.50;;;;;;5013831;28;20044;-61
2022/05/07 02:34:39;;;;;;;11.60;6.78;;;18.10;78.20;;;;;;5013709;28;20037;-65
2022/05/07 02:37:05;;;;;;;9.40;7.43;;;18.00;77.60;;;;;;5013748;28;20030;-63
2022/05/07 02:39:32;;;;;;;8.68;7.03;;;18.00;77.60;;;;;;5013349;28;20024;-65
2022/05/07 02:44:42;;;;;;;12.23;7.57;;;18.00;77.50;;;;;;5013804;28;20395;-64
2022/05/07 02:47:08;;;;;;;11.23;7.57;;;18.00;77.70;;;;;;5013479;28;20018;-64
2022/05/07 02:49:34;;;;;;;10.93;7.72;;;18.00;77.80;;;;;;5013596;28;20034;-65
2022/05/07 02:52:00;;;;;;;9.50;7.18;;;18.00;78.10;;;;;;5013793;28;20026;-63
2022/05/07 02:54:26;;;;;;;10.80;7.88;;;18.00;77.80;;;;;;5013028;28;20025;-64
2022/05/07 02:56:51;;;;;;;9.98;7.85;;;17.90;77.60;;;;;;5013663;28;20037;-60
2022/05/07 02:59:17;;;;;;;12.70;8.52;;;17.90;77.30;;;;;;5013412;28;20094;-61
2022/05/07 03:01:43;;;;;;;10.27;7.68;;;17.90;77.80;;;;;;5013447;28;20037;-65
2022/05/07 03:04:09;;;;;;;12.00;7.75;;;17.90;77.90;;;;;;5013240;28;20468;-60
2022/05/07 03:06:35;;;;;;;9.00;7.40;;;17.90;78.10;;;;;;5013292;28;20494;-60
2022/05/07 03:09:02;;;;;;;10.48;8.43;;;17.90;77.80;;;;;;5013064;28;20022;-62
2022/05/07 03:11:27;;;;;;;8.50;7.18;;;17.90;78.00;;;;;;5011874;28;20489;-64
2022/05/07 03:13:53;;;;;;;11.15;7.75;;;17.80;78.20;;;;;;5013314;28;20026;-60
2022/05/07 03:16:18;;;;;;;10.70;8.57;;;17.80;77.60;;;;;;5013108;28;20072;-65
2022/05/07 03:18:44;;;;;;;11.00;7.78;;;17.80;77.50;;;;;;5013271;28;20065;-59
2022/05/07 03:21:10;;;;;;;12.63;7.80;;;17.80;77.70;;;;;;5012967;28;20496;-59
2022/05/07 03:23:36;;;;;;;8.43;7.45;;;17.80;77.40;;;;;;5013160;28;20069;-63
2022/05/07 03:26:01;;;;;;;11.70;8.48;;;17.80;77.60;;;;;;5012991;28;20033;-61
2022/05/07 03:28:28;;;;;;;10.68;7.50;;;17.80;77.30;;;;;;5013109;28;20026;-61
2022/05/07 03:30:53;;;;;;;10.70;8.07;;;17.70;77.50;;;;;;5012266;28;20070;-65
2022/05/07 03:33:19;;;;;;;11.85;8.55;;;17.70;77.70;;;;;;5013179;28;20018;-62
2022/05/07 03:35:45;;;;;;;12.23;8.32;;;17.70;77.60;;;;;;5013036;28;20033;-61
2022/05/07 03:38:11;;;;;;;11.40;7.90;;;17.70;77.50;;;;;;5012972;28;20471;-59
2022/05/07 03:40:36;;;;;;;11.07;8.90;;;17.70;77.90;;;;;;5012985;28;20468;-60
2022/05/07 03:43:03;;;;;;;10.73;8.05;;;17.60;77.60;;;;;;5013065;28;20033;-61
2022/05/07 03:45:32;;;;;;;13.15;8.73;;;17.60;77.60;;;;;;5012690;28;20101;-61
2022/05/07 03:47:59;;;;;;;16.83;10.20;;;17.60;78.00;;;;;;5013067;28;20022;-61
2022/05/07 03:50:24;;;;;;;12.25;9.48;;;17.60;78.00;;;;;;5012330;28;20038;-60
2022/05/07 03:55:41;;;;;;;11.13;8.40;;;17.60;78.30;;;;;;5013118;28;20053;-62
2022/05/07 03:58:10;;;;;;;11.50;9.25;;;17.60;78.50;;;;;;5012904;28;20096;-60
2022/05/07 04:00:37;;;;;;;12.05;8.88;;;17.50;78.40;;;;;;5012382;28;20113;-60
2022/05/07 04:03:03;;;;;;;12.20;9.15;;;17.60;78.50;;;;;;5012923;28;20029;-59
2022/05/07 04:05:28;;;;;;;13.10;9.10;;;17.50;78.60;;;;;;5012583;28;20022;-59
2022/05/07 04:07:54;;;;;;;11.95;8.77;;;17.50;78.60;;;;;;5012994;28;20030;-59
2022/05/07 04:10:19;;;;;;;14.57;9.50;;;17.50;78.70;;;;;;5012252;28;20026;-59
2022/05/07 04:12:47;;;;;;;11.18;9.30;;;17.50;78.90;;;;;;5012828;28;20383;-60
2022/05/07 04:15:12;;;;;;;14.52;10.52;;;17.50;78.90;;;;;;5014139;28;20029;-60
2022/05/07 04:17:38;;;;;;;12.52;9.88;;;17.50;78.80;;;;;;5016381;28;20034;-64
2022/05/07 04:20:04;;;;;;;14.00;8.93;;;17.50;79.10;;;;;;5016130;28;20027;-65
2022/05/07 04:22:32;;;;;;;18.52;10.05;;;17.40;79.10;;;;;;5016237;28;20022;-59
2022/05/07 04:24:57;;;;;;;12.65;9.98;;;17.50;79.10;;;;;;5016185;28;20432;-59
2022/05/07 04:27:23;;;;;;;10.57;9.05;;;17.40;79.20;;;;;;5015799;28;20061;-60
2022/05/07 04:29:48;;;;;;;11.52;10.18;;;17.40;79.20;;;;;;5015982;28;20057;-61
2022/05/07 04:32:14;;;;;;;12.07;9.45;;;17.40;79.30;;;;;;5015557;28;20048;-59
2022/05/07 04:34:41;;;;;;;11.15;9.88;;;17.40;79.30;;;;;;5015972;28;20398;-60
2022/05/07 04:37:07;;;;;;;13.27;9.07;;;17.40;79.40;;;;;;5015948;28;20102;-61
2022/05/07 04:39:34;;;;;;;13.18;10.00;;;17.40;79.50;;;;;;5015862;28;20026;-59
2022/05/07 04:42:00;;;;;;;11.32;9.20;;;17.40;79.60;;;;;;5015729;28;20109;-59
2022/05/07 04:44:26;;;;;;;12.13;9.50;;;17.40;79.80;;;;;;5015480;28;20026;-59
2022/05/07 04:46:52;;;;;;;15.35;10.10;;;17.40;80.10;;;;;;5015750;28;20026;-61
2022/05/07 04:49:19;;;;;;;17.95;10.95;;;17.40;80.40;;;;;;5015778;28;20018;-60
2022/05/07 04:51:45;;;;;;;12.80;10.32;;;17.40;80.40;;;;;;5015723;28;20026;-61
2022/05/07 04:54:11;;;;;;;17.50;11.80;;;17.30;80.30;;;;;;5015662;28;20049;-59
2022/05/07 04:56:36;;;;;;;16.52;11.27;;;17.30;80.50;;;;;;5014764;28;20061;-64
2022/05/07 04:59:02;;;;;;;16.45;11.43;;;17.30;80.50;;;;;;5015272;28;20037;-59
2022/05/07 05:01:28;;;;;;;17.00;11.85;;;17.30;80.70;;;;;;5008087;28;20046;-61
2022/05/07 05:03:53;;;;;;;14.75;11.52;;;17.30;80.70;;;;;;5015349;28;20026;-61
2022/05/07 05:06:19;;;;;;;13.63;11.80;;;17.30;80.90;;;;;;5013739;28;20034;-61
2022/05/07 05:08:44;;;;;;;17.25;12.00;;;17.30;81.10;;;;;;5014488;28;20033;-61
2022/05/07 05:11:10;;;;;;;15.68;12.15;;;17.30;81.30;;;;;;5015037;28;20072;-60
2022/05/07 05:13:35;;;;;;;16.75;11.15;;;17.30;81.30;;;;;;5015106;28;20025;-60
2022/05/07 05:16:01;;;;;;;18.77;13.13;;;17.30;81.50;;;;;;5015153;28;20387;-59
2022/05/07 05:18:26;;;;;;;14.05;11.77;;;17.30;81.60;;;;;;5015134;28;20053;-59
2022/05/07 05:20:53;;;;;;;15.45;11.43;;;17.30;81.70;;;;;;5014674;28;20092;-60
2022/05/07 05:23:18;;;;;;;15.00;11.30;;;17.30;81.80;;;;;;4995536;28;20085;-59
2022/05/07 05:25:45;;;;;;;12.50;10.18;;;17.30;82.20;;;;;;4994553;28;20034;-60
2022/05/07 05:28:11;;;;;;;15.10;12.70;;;17.30;82.40;;;;;;4994789;28;20396;-61
2022/05/07 05:30:37;;;;;;;17.95;13.00;;;17.30;82.40;;;;;;4995272;28;20435;-61
2022/05/07 05:33:03;;;;;;;19.55;12.48;;;17.30;82.60;;;;;;4995513;28;20484;-62
2022/05/07 05:35:29;;;;;;;14.75;11.20;;;17.30;82.60;;;;;;4993986;28;20030;-65
2022/05/07 05:37:54;;;;;;;18.00;14.05;;;17.30;82.60;;;;;;4995214;28;20034;-65
2022/05/07 05:40:20;;;;;;;16.60;12.63;;;17.30;82.50;;;;;;4995453;28;20396;-64
2022/05/07 05:42:46;;;;;;;18.02;11.40;;;17.30;82.70;;;;;;4994924;28;20065;-62
2022/05/07 05:45:12;;;;;;;19.95;12.52;;;17.40;83.10;;;;;;5001652;28;20022;-63
2022/05/07 05:47:37;;;;;;;21.05;13.50;;;17.30;83.20;;;;;;5014538;28;20045;-60
2022/05/07 05:50:03;;;;;;;20.50;14.60;;;17.40;83.20;;;;;;5014696;28;20155;-59
2022/05/07 05:52:29;;;;;;;20.30;15.68;;;17.40;83.40;;;;;;5014105;28;20121;-59
2022/05/07 05:54:54;;;;;;;19.73;14.48;;;17.40;83.60;;;;;;5014762;28;20128;-60
2022/05/07 05:57:22;;;;;;;19.73;15.13;;;17.50;83.80;;;;;;5014023;28;20037;-59
2022/05/07 05:59:47;;;;;;;19.30;14.93;;;17.50;84.00;;;;;;5014384;28;20022;-61
2022/05/07 06:02:15;;;;;;;18.45;14.52;;;17.50;84.30;;;;;;5014389;28;20165;-60
2022/05/07 06:04:41;;;;;;;19.65;14.60;;;17.50;84.20;;;;;;5014384;28;20018;-59
2022/05/07 06:07:06;;;;;;;21.30;14.63;;;17.50;84.40;;;;;;5014403;28;20475;-60
2022/05/07 06:09:32;;;;;;;20.20;15.25;;;17.60;84.40;;;;;;5014013;28;20442;-65
2022/05/07 06:11:59;;;;;;;29.55;16.25;;;17.60;84.00;;;;;;5013662;28;20076;-59
2022/05/07 06:14:25;;;;;;;19.10;14.38;;;17.60;84.00;;;;;;5013956;28;20434;-60
2022/05/07 06:16:51;;;;;;;26.40;17.73;;;17.60;84.40;;;;;;5013944;28;20105;-66
2022/05/07 06:19:17;;;;;;;23.08;16.48;;;17.70;84.40;;;;;;5013858;28;20046;-64
2022/05/07 06:21:42;;;;;;;21.90;15.57;;;17.70;84.40;;;;;;5014037;28;20479;-63
2022/05/07 06:29:36;;;;;;;22.50;15.63;;;17.80;84.00;;;;;;5013642;28;20061;-65
2022/05/07 06:32:02;;;;;;;25.42;16.15;;;17.90;84.50;;;;;;5010868;28;20065;-64
2022/05/07 06:34:28;;;;;;;25.35;15.23;;;17.90;84.70;;;;;;5003645;28;20018;-63
2022/05/07 06:36:54;;;;;;;25.80;16.98;;;17.90;84.70;;;;;;4994863;28;20161;-63
2022/05/07 06:39:21;;;;;;;22.15;15.65;;;18.00;84.50;;;;;;5010934;28;20041;-65
2022/05/07 06:41:48;;;;;;;24.15;16.00;;;18.00;84.70;;;;;;5013589;28;20065;-64
2022/05/07 06:44:14;;;;;;;21.00;14.98;;;18.10;84.50;;;;;;5013250;28;20018;-64
2022/05/07 06:46:39;;;;;;;22.27;15.20;;;18.10;84.40;;;;;;5013324;28;20026;-66
2022/05/07 06:49:05;;;;;;;21.80;13.95;;;18.10;84.70;;;;;;5012923;28;20018;-64
2022/05/07 06:51:32;;;;;;;22.33;14.82;;;18.20;84.60;;;;;;5012805;28;20088;-65
2022/05/07 06:53:57;;;;;;;10.55;8.35;;;18.10;84.90;;;;;;5011108;28;20071;-65
2022/05/07 06:56:23;;;;;;;11.52;8.32;;;18.20;84.00;;;;;;5013339;28;20029;-66
2022/05/07 06:58:49;;;;;;;12.30;8.63;;;18.20;83.60;;;;;;5012405;28;20492;-64
2022/05/07 07:01:14;;;;;;;14.85;9.80;;;18.30;83.50;;;;;;5010976;28;20065;-63
2022/05/07 07:03:40;;;;;;;10.35;7.18;;;18.40;83.30;;;;;;5012824;28;20022;-65
2022/05/07 07:06:06;;;;;;;9.10;7.18;;;18.40;83.20;;;;;;5013247;28;20509;-64
2022/05/07 07:08:32;;;;;;;9.50;7.50;;;18.50;83.10;;;;;;5012908;28;20046;-64
2022/05/07 07:10:58;;;;;;;16.95;10.18;;;18.50;83.20;;;;;;4998115;28;20087;-65
2022/05/07 07:13:24;;;;;;;18.30;13.38;;;18.50;83.60;;;;;;5004716;28;20022;-64
2022/05/07 07:15:50;;;;;;;14.90;11.40;;;18.50;84.20;;;;;;5013060;28;20030;-65
2022/05/07 07:18:16;;;;;;;18.70;12.77;;;18.50;84.40;;;;;;5012366;28;20527;-62
2022/05/07 07:20:43;;;;;;;19.08;14.00;;;18.60;84.70;;;;;;5008599;28;20030;-65
2022/05/07 07:23:11;;;;;;;20.70;14.10;;;18.60;84.80;;;;;;5011921;28;20018;-63
2022/05/07 07:25:37;;;;;;;21.05;14.38;;;18.70;84.70;;;;;;5012393;28;20022;-65
2022/05/07 07:28:03;;;;;;;20.65;13.02;;;18.70;84.50;;;;;;5012771;28;20037;-65
2022/05/07 07:30:28;;;;;;;17.05;13.00;;;18.70;84.70;;;;;;5012145;28;20026;-60
2022/05/07 07:32:54;;;;;;;18.95;13.43;;;18.80;84.70;;;;;;5007202;28;20030;-67
2022/05/07 07:35:19;;;;;;;19.67;13.35;;;18.80;84.00;;;;;;5003863;28;20037;-62
2022/05/07 07:37:45;;;;;;;17.75;12.40;;;18.80;83.80;;;;;;5010490;28;20056;-61
2022/05/07 07:40:13;;;;;;;14.40;10.30;;;18.90;84.00;;;;;;5009781;28;20172;-64
2022/05/07 07:42:40;;;;;;;13.55;8.70;;;18.90;83.80;;;;;;5012284;28;20088;-59
2022/05/07 07:47:57;;;;;;;15.40;10.68;;;18.90;83.60;;;;;;5012712;28;20518;-64
2022/05/07 07:50:29;;;;;;;12.75;9.70;;;18.90;83.50;;;;;;5013090;28;20116;-63
2022/05/07 07:52:55;;;;;;;14.15;9.70;;;18.90;83.40;;;;;;5012979;28;20030;-65
2022/05/07 07:55:22;;;;;;;11.52;6.88;;;19.00;83.40;;;;;;5013011;28;20018;-64
2022/05/07 07:57:49;;;;;;;14.02;9.82;;;19.00;82.70;;;;;;5014322;28;20034;-64
2022/05/07 08:00:15;;;;;;;17.23;10.85;;;19.00;82.90;;;;;;5019217;28;20022;-65
2022/05/07 08:02:47;;;;;;;14.98;10.20;;;19.00;82.60;;;;;;5013769;28;20033;-65
2022/05/07 08:05:13;;;;;;;14.27;10.13;;;19.10;82.30;;;;;;5018001;28;20026;-65
2022/05/07 08:13:07;;;;;;;16.15;10.45;;;19.20;82.00;;;;;;5014290;28;20036;-63
2022/05/07 08:15:32;;;;;;;14.13;9.90;;;19.20;82.50;;;;;;5027483;28;20034;-65
2022/05/07 08:17:58;;;;;;;16.75;10.02;;;19.20;82.40;;;;;;5016226;28;20502;-62
2022/05/07 08:20:23;;;;;;;11.95;8.15;;;19.20;82.60;;;;;;5015354;28;20513;-67
2022/05/07 08:22:49;;;;;;;16.45;11.00;;;19.20;82.30;;;;;;5014929;28;20044;-63
2022/05/07 08:25:14;;;;;;;17.35;10.60;;;19.20;82.30;;;;;;5014933;28;20087;-65
2022/05/07 08:27:40;;;;;;;15.05;10.25;;;19.30;82.70;;;;;;5012727;28;20030;-65
2022/05/07 08:30:06;;;;;;;12.25;7.72;;;19.30;82.80;;;;;;5005821;28;20113;-64
2022/05/07 08:32:32;;;;;;;9.55;6.43;;;19.30;82.60;;;;;;5012274;28;20050;-65
2022/05/07 08:34:57;;;;;;;10.40;7.43;;;19.30;82.70;;;;;;5012099;28;20058;-64
2022/05/07 08:37:23;;;;;;;16.70;11.20;;;19.30;82.90;;;;;;4999677;28;20046;-64
2022/05/07 08:39:48;;;;;;;17.20;11.85;;;19.40;82.60;;;;;;4995980;28;20033;-65
2022/05/07 08:42:15;;;;;;;16.40;12.38;;;19.40;82.70;;;;;;5000012;28;20092;-66
2022/05/07 08:44:41;;;;;;;14.60;11.18;;;19.40;82.80;;;;;;5010132;28;20097;-63
2022/05/07 08:47:06;;;;;;;16.75;11.13;;;19.50;82.70;;;;;;5014880;28;20160;-63
2022/05/07 08:49:32;;;;;;;16.75;11.23;;;19.60;82.60;;;;;;5015511;28;20022;-64
2022/05/07 08:52:00;;;;;;;12.13;8.38;;;19.60;82.70;;;;;;5014867;28;20185;-65
2022/05/07 08:54:26;;;;;;;11.60;9.70;;;19.60;82.70;;;;;;5015963;28;20057;-64
2022/05/07 08:56:51;;;;;;;19.40;10.65;;;19.60;83.00;;;;;;5031857;28;20471;-61
2022/05/07 08:59:17;;;;;;;17.70;11.10;;;19.60;82.90;;;;;;5000716;28;20030;-65
2022/05/07 09:01:43;;;;;;;13.23;9.43;;;19.60;82.80;;;;;;5000814;28;20036;-64
2022/05/07 09:04:10;;;;;;;14.65;10.35;;;19.60;82.60;;;;;;5011018;28;20030;-64
2022/05/07 09:06:36;;;;;;;14.00;9.77;;;19.70;83.10;;;;;;5010768;28;20030;-65
2022/05/07 09:09:05;;;;;;;15.25;8.65;;;19.70;83.00;;;;;;5004945;28;20488;-65
2022/05/07 09:11:42;;;;;;;13.48;7.90;;;19.70;83.00;;;;;;5014848;28;20045;-65
2022/05/07 09:14:07;;;;;;;9.25;7.00;;;19.80;82.90;;;;;;5010703;28;20082;-63
2022/05/07 09:17:00;;;;;;;10.98;7.65;;;19.70;83.20;;;;;;5011036;28;20034;-65
2022/05/07 09:19:30;;;;;;;11.45;7.60;;;19.80;81.70;;;;;;5013705;28;20034;-64
2022/05/07 09:22:05;;;;;;;9.75;7.22;;;19.80;80.70;;;;;;5014661;28;20038;-65
2022/05/07 09:24:31;;;;;;;13.65;7.80;;;19.80;82.40;;;;;;5014317;28;20018;-64
2022/05/07 09:26:57;;;;;;;11.93;7.90;;;19.80;83.20;;;;;;5013913;28;20519;-64
2022/05/07 09:29:27;;;;;;;12.15;7.40;;;19.80;83.30;;;;;;5011179;28;20097;-64
2022/05/07 09:31:53;;;;;;;25.02;6.88;;;19.90;83.00;;;;;;5011177;28;20025;-63
2022/05/07 09:37:18;;;;;;;9.00;7.35;;;19.90;83.30;;;;;;5010738;28;20139;-62
2022/05/07 09:39:48;;;;;;;14.60;7.18;;;19.90;83.00;;;;;;5006754;28;20033;-63
2022/05/07 09:42:24;;;;;;;8.35;6.72;;;19.90;83.00;;;;;;5011810;28;20044;-65
2022/05/07 09:44:50;;;;;;;14.00;8.18;;;19.90;82.90;;;;;;5008635;28;20021;-65
2022/05/07 09:47:16;;;;;;;8.07;6.20;;;20.00;83.40;;;;;;5009343;28;20535;-65
2022/05/07 09:50:20;;;;;;;10.73;6.75;;;19.90;83.00;;;;;;5011952;28;20025;-63
2022/05/07 09:52:29;;;;;;;13.20;5.90;;;20.00;83.00;;;;;;5009438;28;20040;-65
2022/05/07 09:57:41;;;;;;;9.65;6.57;;;20.00;83.20;;;;;;5010909;28;20462;-64
2022/05/07 10:00:10;;;;;;;11.55;7.82;;;20.00;83.30;;;;;;5012636;28;20022;-64
2022/05/07 10:03:07;;;;;;;9.52;6.88;;;20.00;83.10;;;;;;5013990;28;20049;-65
2022/05/07 10:05:50;;;;;;;11.77;6.55;;;20.10;82.70;;;;;;5010299;28;20029;-65
2022/05/07 10:08:37;;;;;;;8.65;6.22;;;20.10;82.80;;;;;;5006001;28;20041;-62
2022/05/07 10:11:04;;;;;;;10.13;7.15;;;20.10;82.30;;;;;;5010353;28;20550;-60
2022/05/07 10:13:30;;;;;;;8.68;5.25;;;20.20;82.40;;;;;;4999574;28;20044;-63
2022/05/07 10:16:00;;;;;;;10.25;4.75;;;20.20;82.10;;;;;;5004398;28;20026;-64
2022/05/07 10:18:40;;;;;;;7.70;4.65;;;20.20;82.10;;;;;;5007798;28;20025;-64
2022/05/07 10:21:11;;;;;;;9.52;5.20;;;20.20;81.80;;;;;;4996894;28;20080;-64
2022/05/07 10:23:51;;;;;;;6.85;5.13;;;20.20;81.70;;;;;;5002375;28;20025;-60
2022/05/07 10:26:17;;;;;;;8.85;5.75;;;20.30;81.50;;;;;;4999949;28;20030;-64
2022/05/07 10:28:42;;;;;;;11.57;4.38;;;20.20;81.30;;;;;;5002755;28;20026;-64
2022/05/07 10:31:21;;;;;;;6.82;4.60;;;20.30;81.70;;;;;;5008979;28;20022;-65
2022/05/07 10:33:47;;;;;;;8.25;3.97;;;20.30;81.40;;;;;;5009317;28;20072;-63
2022/05/07 10:36:14;;;;;;;11.18;6.85;;;20.30;81.80;;;;;;5013427;28;20021;-65
2022/05/07 10:38:42;;;;;;;7.00;4.40;;;20.40;81.30;;;;;;5029480;28;20026;-64
2022/05/07 10:41:20;;;;;;;10.82;5.68;;;20.30;81.40;;;;;;5013423;28;20040;-63
2022/05/07 10:43:48;;;;;;;7.85;4.82;;;20.40;81.30;;;;;;5011915;28;20076;-60
2022/05/07 10:46:20;;;;;;;9.18;4.10;;;20.40;81.40;;;;;;5012990;28;20075;-63
2022/05/07 10:48:48;;;;;;;;;;;20.40;81.20;;;;;;5009876;28;20535;-63
2022/05/07 10:51:21;;;;;;;11.43;7.20;;;20.40;81.10;;;;;;5011576;28;19909;-60
2022/05/07 10:53:47;;;;;;;6.57;4.97;;;20.40;80.40;;;;;;5004709;28;20104;-64
2022/05/07 10:56:20;;;;;;;9.15;5.63;;;20.40;81.00;;;;;;5013047;28;20034;-61
2022/05/07 10:58:52;;;;;;;;;;;20.50;81.30;;;;;;5009669;28;20522;-63
2022/05/07 11:01:19;;;;;;;10.43;6.68;;;20.40;81.60;;;;;;5014125;28;20317;-65
2022/05/07 11:03:46;;;;;;;13.95;7.60;;;20.50;84.20;;;;;;5008384;28;20026;-63
2022/05/07 11:06:12;;;;;;;8.32;6.95;;;20.50;84.00;;;;;;5008841;28;20033;-63
2022/05/07 11:08:49;;;;;;;9.90;7.45;;;20.50;82.60;;;;;;5003478;28;20022;-64
2022/05/07 11:11:15;;;;;;;12.00;7.95;;;20.50;83.80;;;;;;5006670;28;20041;-63
2022/05/07 11:13:49;;;;;;;12.38;7.88;;;20.60;89.60;;;;;;5005922;28;20117;-65
2022/05/07 11:16:16;;;;;;;12.50;8.95;;;20.60;85.70;;;;;;5001789;28;20029;-65
2022/05/07 11:18:50;;;;;;;14.27;9.48;;;20.60;90.80;;;;;;5013097;28;20022;-64
2022/05/07 11:21:17;;;;;;;15.27;9.20;;;20.60;91.90;;;;;;5010104;28;20041;-64
2022/05/07 11:23:44;;;;;;;10.27;8.52;;;20.70;91.10;;;;;;5011030;28;20488;-60
2022/05/07 11:26:17;;;;;;;11.73;9.35;;;20.70;91.00;;;;;;5011177;28;20041;-63
2022/05/07 11:28:44;;;;;;;11.13;8.00;;;20.70;93.60;;;;;;5013606;28;20092;-64
2022/05/07 11:31:11;;;;;;;46.20;17.67;;;20.70;90.60;;;;;;5013598;28;20021;-61
2022/05/07 11:33:38;;;;;;;49.15;21.15;;;20.80;93.30;;;;;;5011096;28;20109;-65
2022/05/07 11:36:08;;;;;;;51.83;21.63;;;20.80;93.00;;;;;;5016923;28;20463;-64
2022/05/07 11:38:35;;;;;;;41.22;23.65;;;20.80;90.90;;;;;;5012364;28;20027;-65
2022/05/07 11:41:14;;;;;;;31.50;18.55;;;20.80;90.30;;;;;;5017089;28;20029;-65
2022/05/07 11:46:24;;;;;;;26.08;15.32;;;20.80;85.80;;;;;;5018235;28;20044;-65
2022/05/07 11:48:50;;;;;;;19.85;12.20;;;20.80;86.70;;;;;;5010095;28;20499;-66
2022/05/07 11:51:24;;;;;;;77.45;33.65;;;20.80;83.60;;;;;;5011688;28;20152;-64
2022/05/07 11:53:51;;;;;;;69.30;34.15;;;20.90;87.90;;;;;;5011442;28;20071;-64
2022/05/07 11:56:17;;;;;;;114.63;49.92;;;20.90;88.10;;;;;;5011785;28;20029;-64
2022/05/07 11:58:46;;;;;;;75.95;34.10;;;20.90;90.10;;;;;;5010399;28;20037;-65
2022/05/07 12:01:23;;;;;;;77.82;35.47;;;20.90;87.00;;;;;;5008674;28;20034;-65
2022/05/07 12:03:49;;;;;;;60.67;27.75;;;20.90;88.10;;;;;;5008505;28;20387;-64
2022/05/07 12:06:30;;;;;;;57.53;26.77;;;20.90;86.90;;;;;;5008290;28;20025;-65
2022/05/07 12:08:56;;;;;;;59.70;29.65;;;21.00;85.00;;;;;;5008448;28;20112;-65
2022/05/07 12:11:22;;;;;;;70.88;32.20;;;21.00;86.20;;;;;;5007504;28;20093;-64
2022/05/07 12:13:48;;;;;;;70.32;31.92;;;21.00;87.20;;;;;;5008272;28;20030;-65
2022/05/07 12:18:59;;;;;;;16.10;11.30;;;21.10;87.80;;;;;;5005910;28;20045;-66
2022/05/07 12:29:49;;;;;;;11.65;8.60;;;21.00;80.70;;;;;;5010633;28;20085;-65
2022/05/07 12:32:20;;;;;;;17.88;11.10;;;21.00;77.80;;;;;;5006329;28;20080;-65
2022/05/07 12:34:46;;;;;;;23.50;14.23;;;21.00;79.70;;;;;;5009604;28;20435;-65
2022/05/07 12:37:12;;;;;;;27.65;15.43;;;21.10;81.60;;;;;;5008670;28;20031;-65
2022/05/07 12:39:38;;;;;;;22.90;13.10;;;21.10;83.10;;;;;;5001248;28;20026;-65
2022/05/07 12:42:09;;;;;;;15.32;12.13;;;21.10;80.90;;;;;;5011473;28;20420;-64
2022/05/07 12:44:36;;;;;;;30.13;14.95;;;21.10;81.40;;;;;;5009550;28;20851;-65
2022/05/07 12:47:02;;;;;;;19.48;11.68;;;21.10;82.20;;;;;;5002638;28;20041;-64
2022/05/07 12:49:28;;;;;;;12.68;8.65;;;21.10;79.60;;;;;;5009513;28;20398;-64
2022/05/07 12:51:53;;;;;;;22.50;11.13;;;21.10;77.20;;;;;;5008567;28;20242;-64
2022/05/07 12:54:21;;;;;;;18.20;10.43;;;21.20;80.60;;;;;;5016159;28;20050;-64
2022/05/07 12:56:46;;;;;;;19.23;11.15;;;21.10;80.50;;;;;;5012985;28;20080;-64
2022/05/07 12:59:12;;;;;;;23.67;11.43;;;21.20;81.70;;;;;;5008610;28;20539;-65
2022/05/07 13:01:40;;;;;;;23.73;10.77;;;21.20;82.10;;;;;;5014519;28;20042;-63
2022/05/07 13:04:06;;;;;;;22.73;9.98;;;21.20;81.20;;;;;;5011785;28;20565;-63
2022/05/07 13:06:32;;;;;;;25.17;10.18;;;21.20;81.00;;;;;;5009968;28;20034;-65
2022/05/07 13:09:00;;;;;;;16.17;8.68;;;21.30;81.40;;;;;;5010228;28;20045;-63
2022/05/07 13:11:27;;;;;;;16.70;8.77;;;21.20;80.90;;;;;;5009992;28;20044;-61